Terminal Aerodrome Forecast
Issued by NWS Portland, OR

Home | Current Version | Previous Version | Text Only | Print | Product List | Glossary On
Versions: 1 2 3 4 5 6 7 8 9 10 11 12 13 14 15 16 17 18 19 20 21 22 23 24 25 26 27 28 29 30 31 32 33 34
038
FTUS46 KPQR 121142
TAFHIO
TAF
KHIO 121142Z 1212/1312 10004KT 3/4SM BR OVC004
     FM121500 16005KT P6SM -RA BKN035 OVC050
     FM122000 21005KT P6SM SCT035 BKN050
     FM122200 18006KT P6SM SCT050
     FM130000 20005KT P6SM -SHRA SCT025 BKN040
     FM130400 18005KT P6SM BKN040=

USA.gov is the U.S. government's official web portal to all federal, state and local government web resources and services.